RUNWAY INFORMATION
Runway Length Width Elevation Displaced
Threshold
Heading | Runway Length Width Elevation Displaced
Threshold
Heading
01 7002 ft 150 ft 29 ft 0 ft 0 | 19 7002 ft 150 ft 42 ft 0 ft 180
10 9351 ft 150 ft 17 ft 0 ft 91 | 28 9351 ft 150 ft 46 ft 0 ft 271

 AIRPORT FREQUENCIES
Type A/D Name APP/DEP Frequency 118.4 MHZ
Type ATIS Name ATIS Frequency 123.75 MHZ
Type CLD Name CLNC DEL Frequency 119.55 MHZ
Type CTAF Name CTAF Frequency 119.1 MHZ
Type GND Name GND Frequency 121.9 MHZ
Type MISC Name ANDERSON R Frequency 112.7 MHZ
Type OPS Name CRTC OPS Frequency 23.7 MHZ
Type POST Name 165 AW COM Frequency 22.575 MHZ
Type RDO Name MACON RDO Frequency 123.65 MHZ
Type TWR Name TWR Frequency 119.1 MHZ
Type UNIC Name UNICOM Frequency 122.95 MHZ

 AIRPORT NEAR NAVIGATION AIDS
Type NDB Name Mavis Frequency 368 KHZ
Type VORTAC Name Savannah Frequency 115950 KHZ

 METAR AND TAF INFORMATION
METAR FOR KSAV
ADDS - METARS form results

(1108 UTC 07 December 2021)
Data provider http://aviationweather.gov/metar/data/
 
METAR text: KSAV 071053Z 00000KT 10SM FEW018 FEW090 OVC120 16/15 A3004 RMK AO2 SLP171 T01610150
Conditions at: KSAV (SAVANNAH , GA, US) observed 1053 UTC 07 December 2021
Temperature: 16.1°C (61°F)
Dewpoint: 15.0°C (59°F) [RH = 93%]
Pressure (altimeter): 30.04 inches Hg (1017.4 mb)
[Sea-level pressure: 1017.1 mb]
Winds: calm
Visibility: 10 or more miles (16+ km)
Ceiling: 12000 feet AGL
Clouds: few clouds at 1800 feet AGL
few clouds at 9000 feet AGL
overcast cloud deck at 12000 feet AGL
Weather: no significant weather observed at this time

METAR text: KSAV 071032Z AUTO 00000KT 10SM SCT017 OVC120 16/15 A3004 RMK AO2 T01610150
Conditions at: KSAV (SAVANNAH , GA, US) observed 1032 UTC 07 December 2021
Temperature: 16.1°C (61°F)
Dewpoint: 15.0°C (59°F) [RH = 93%]
Pressure (altimeter): 30.04 inches Hg (1017.4 mb)
Winds: calm
Visibility: 10 or more miles (16+ km)
Ceiling: 12000 feet AGL
Clouds: scattered clouds at 1700 feet AGL
overcast cloud deck at 12000 feet AGL
Weather: automated observation with no human augmentation;
there may or may not be significant weather present at this time

METAR text: KSAV 071014Z AUTO 00000KT 10SM OVC016 17/16 A3003 RMK AO2 T01670156
Conditions at: KSAV (SAVANNAH , GA, US) observed 1014 UTC 07 December 2021
Temperature: 16.7°C (62°F)
Dewpoint: 15.6°C (60°F) [RH = 93%]
Pressure (altimeter): 30.03 inches Hg (1017.0 mb)
Winds: calm
Visibility: 10 or more miles (16+ km)
Ceiling: 1600 feet AGL
Clouds: overcast cloud deck at 1600 feet AGL
Weather: automated observation with no human augmentation;
there may or may not be significant weather present at this time

Forecast for: KSAV (SAVANNAH , GA, US)
Text: KSAV 070535Z 0706/0806 23004KT P6SM SCT080 BKN150
Forecast period: 0600 to 1100 UTC 07 December 2021
Forecast type: FROM: standard forecast or significant change
Winds: from the SW (230 degrees) at 5 MPH (4 knots; 2.1 m/s)
Visibility: 6 or more miles (10+ km)
Ceiling: 15000 feet AGL
Clouds: scattered clouds at 8000 feet AGL
broken clouds at 15000 feet AGL
Weather: no significant weather forecast for this period
Text: FM071100 33004KT P6SM BKN015
Forecast period: 1100 to 1600 UTC 07 December 2021
Forecast type: FROM: standard forecast or significant change
Winds: from the NNW (330 degrees) at 5 MPH (4 knots; 2.1 m/s)
Visibility: 6 or more miles (10+ km)
Ceiling: 1500 feet AGL
Clouds: broken clouds at 1500 feet AGL
Weather: no significant weather forecast for this period
Text: FM071600 05007KT P6SM BKN025
Forecast period: 1600 UTC 07 December 2021 to 0300 UTC 08 December 2021
Forecast type: FROM: standard forecast or significant change
Winds: from the NE (50 degrees) at 8 MPH (7 knots; 3.6 m/s)
Visibility: 6 or more miles (10+ km)
Ceiling: 2500 feet AGL
Clouds: broken clouds at 2500 feet AGL
Weather: no significant weather forecast for this period
Text: FM080300 06004KT P6SM OVC008
Forecast period: 0300 to 0600 UTC 08 December 2021
Forecast type: FROM: standard forecast or significant change
Winds: from the ENE (60 degrees) at 5 MPH (4 knots; 2.1 m/s)
Visibility: 6 or more miles (10+ km)
Ceiling: 800 feet AGL
Clouds: overcast cloud deck at 800 feet AGL
Weather: no significant weather forecast for this period



© 2013 - 2021, FlightSimLog.org - Powered by Virtual Airlines Manager